sensor_id;sensor_type;location;lat;lon;timestamp;temperature;humidity
52321;DHT22;38261;54.090;13.382;2023-01-31T00:00:12;3.10;99.90
52321;DHT22;38261;54.090;13.382;2023-01-31T00:01:37;3.10;99.90
52321;DHT22;38261;54.090;13.382;2023-01-31T00:03:00;3.10;99.90
52321;DHT22;38261;54.090;13.382;2023-01-31T00:04:22;3.00;99.90
52321;DHT22;38261;54.090;13.382;2023-01-31T00:05:44;3.00;99.90
52321;DHT22;38261;54.090;13.382;2023-01-31T00:07:07;3.00;99.90
52321;DHT22;38261;54.090;13.382;2023-01-31T00:08:29;3.00;99.90
52321;DHT22;38261;54.090;13.382;2023-01-31T00:09:51;3.00;99.90
52321;DHT22;38261;54.090;13.382;2023-01-31T00:11:14;3.00;99.90
52321;DHT22;38261;54.090;13.382;2023-01-31T00:12:37;2.90;99.90
52321;DHT22;38261;54.090;13.382;2023-01-31T00:14:00;2.90;99.90
52321;DHT22;38261;54.090;13.382;2023-01-31T00:15:23;2.90;99.90
52321;DHT22;38261;54.090;13.382;2023-01-31T00:16:45;2.90;99.90
52321;DHT22;38261;54.090;13.382;2023-01-31T00:18:07;2.90;99.90
52321;DHT22;38261;54.090;13.382;2023-01-31T00:19:29;2.90;99.90
52321;DHT22;38261;54.090;13.382;2023-01-31T00:20:51;3.00;99.90
52321;DHT22;38261;54.090;13.382;2023-01-31T00:22:13;2.90;99.90
52321;DHT22;38261;54.090;13.382;2023-01-31T00:23:36;2.90;99.90
52321;DHT22;38261;54.090;13.382;2023-01-31T00:24:59;2.90;99.90
52321;DHT22;38261;54.090;13.382;2023-01-31T00:26:24;2.90;99.90
52321;DHT22;38261;54.090;13.382;2023-01-31T00:27:46;2.90;99.90
52321;DHT22;38261;54.090;13.382;2023-01-31T00:29:08;2.90;99.90
52321;DHT22;38261;54.090;13.382;2023-01-31T00:30:31;2.90;99.90
52321;DHT22;38261;54.090;13.382;2023-01-31T00:31:53;2.90;99.90
52321;DHT22;38261;54.090;13.382;2023-01-31T00:33:16;2.80;99.90
52321;DHT22;38261;54.090;13.382;2023-01-31T00:34:38;2.80;99.90
52321;DHT22;38261;54.090;13.382;2023-01-31T00:36:08;2.80;99.90
52321;DHT22;38261;54.090;13.382;2023-01-31T00:37:31;2.80;99.90
52321;DHT22;38261;54.090;13.382;2023-01-31T00:38:55;2.80;99.90
52321;DHT22;38261;54.090;13.382;2023-01-31T00:40:18;2.80;99.90
52321;DHT22;38261;54.090;13.382;2023-01-31T00:41:40;2.80;99.90
52321;DHT22;38261;54.090;13.382;2023-01-31T00:43:02;2.80;99.90
52321;DHT22;38261;54.090;13.382;2023-01-31T00:44:24;2.80;99.90
52321;DHT22;38261;54.090;13.382;2023-01-31T00:45:46;2.70;99.90
52321;DHT22;38261;54.090;13.382;2023-01-31T00:47:09;2.80;99.90
52321;DHT22;38261;54.090;13.382;2023-01-31T00:48:31;2.70;99.90
52321;DHT22;38261;54.090;13.382;2023-01-31T00:49:53;2.70;99.90
52321;DHT22;38261;54.090;13.382;2023-01-31T00:51:16;2.70;99.90
52321;DHT22;38261;54.090;13.382;2023-01-31T00:52:38;2.70;99.90
52321;DHT22;38261;54.090;13.382;2023-01-31T00:54:00;2.70;99.90
52321;DHT22;38261;54.090;13.382;2023-01-31T00:55:22;2.70;99.90
52321;DHT22;38261;54.090;13.382;2023-01-31T00:56:44;2.70;99.90
52321;DHT22;38261;54.090;13.382;2023-01-31T00:58:06;2.70;99.90
52321;DHT22;38261;54.090;13.382;2023-01-31T00:59:28;2.70;99.90
52321;DHT22;38261;54.090;13.382;2023-01-31T01:00:50;2.70;99.90
52321;DHT22;38261;54.090;13.382;2023-01-31T01:02:12;2.70;99.90
52321;DHT22;38261;54.090;13.382;2023-01-31T01:03:35;2.70;99.90
52321;DHT22;38261;54.090;13.382;2023-01-31T01:04:58;2.60;99.90
52321;DHT22;38261;54.090;13.382;2023-01-31T01:06:20;2.60;99.90
52321;DHT22;38261;54.090;13.382;2023-01-31T01:07:42;2.70;99.90
52321;DHT22;38261;54.090;13.382;2023-01-31T01:09:04;2.60;99.90
52321;DHT22;38261;54.090;13.382;2023-01-31T01:10:27;2.60;99.90
52321;DHT22;38261;54.090;13.382;2023-01-31T01:11:49;2.60;99.90
52321;DHT22;38261;54.090;13.382;2023-01-31T01:13:11;2.60;99.90
52321;DHT22;38261;54.090;13.382;2023-01-31T01:14:33;2.60;99.90
52321;DHT22;38261;54.090;13.382;2023-01-31T01:15:56;2.60;99.90
52321;DHT22;38261;54.090;13.382;2023-01-31T01:17:18;2.60;99.90
52321;DHT22;38261;54.090;13.382;2023-01-31T01:18:41;2.60;99.90
52321;DHT22;38261;54.090;13.382;2023-01-31T01:20:06;2.60;99.90
52321;DHT22;38261;54.090;13.382;2023-01-31T01:21:30;2.60;99.90
52321;DHT22;38261;54.090;13.382;2023-01-31T01:22:53;2.60;99.90
52321;DHT22;38261;54.090;13.382;2023-01-31T01:24:17;2.60;99.90
52321;DHT22;38261;54.090;13.382;2023-01-31T01:25:45;2.60;99.90
52321;DHT22;38261;54.090;13.382;2023-01-31T01:27:08;2.60;99.90
52321;DHT22;38261;54.090;13.382;2023-01-31T01:28:34;2.60;99.90
52321;DHT22;38261;54.090;13.382;2023-01-31T01:29:56;2.60;99.90
52321;DHT22;38261;54.090;13.382;2023-01-31T01:31:20;2.60;99.90
52321;DHT22;38261;54.090;13.382;2023-01-31T01:32:43;2.50;99.90
52321;DHT22;38261;54.090;13.382;2023-01-31T01:34:13;2.50;99.90
52321;DHT22;38261;54.090;13.382;2023-01-31T01:35:35;2.50;99.90
52321;DHT22;38261;54.090;13.382;2023-01-31T01:36:57;2.50;99.90
52321;DHT22;38261;54.090;13.382;2023-01-31T01:38:19;2.50;99.90
52321;DHT22;38261;54.090;13.382;2023-01-31T01:39:42;2.50;99.90
52321;DHT22;38261;54.090;13.382;2023-01-31T01:41:04;2.50;99.90
52321;DHT22;38261;54.090;13.382;2023-01-31T01:42:26;2.50;99.90
52321;DHT22;38261;54.090;13.382;2023-01-31T01:43:56;2.50;99.90
52321;DHT22;38261;54.090;13.382;2023-01-31T01:45:18;2.50;99.90
52321;DHT22;38261;54.090;13.382;2023-01-31T01:46:43;2.50;99.90
52321;DHT22;38261;54.090;13.382;2023-01-31T01:48:07;2.50;99.90
52321;DHT22;38261;54.090;13.382;2023-01-31T01:49:34;2.50;99.90
52321;DHT22;38261;54.090;13.382;2023-01-31T01:50:58;2.50;99.90
52321;DHT22;38261;54.090;13.382;2023-01-31T01:52:22;2.50;99.90
52321;DHT22;38261;54.090;13.382;2023-01-31T01:53:48;2.40;99.90
52321;DHT22;38261;54.090;13.382;2023-01-31T01:56:46;2.40;99.90
52321;DHT22;38261;54.090;13.382;2023-01-31T01:58:30;2.40;99.90
52321;DHT22;38261;54.090;13.382;2023-01-31T02:00:07;2.40;99.90
52321;DHT22;38261;54.090;13.382;2023-01-31T02:01:34;2.40;99.90
52321;DHT22;38261;54.090;13.382;2023-01-31T02:02:58;2.40;99.90
52321;DHT22;38261;54.090;13.382;2023-01-31T02:04:26;2.40;99.90
52321;DHT22;38261;54.090;13.382;2023-01-31T02:05:52;2.40;99.90
52321;DHT22;38261;54.090;13.382;2023-01-31T02:07:15;2.40;99.90
52321;DHT22;38261;54.090;13.382;2023-01-31T02:08:38;2.40;99.90
52321;DHT22;38261;54.090;13.382;2023-01-31T02:10:19;2.40;99.90
52321;DHT22;38261;54.090;13.382;2023-01-31T02:11:43;2.40;99.90
52321;DHT22;38261;54.090;13.382;2023-01-31T02:13:05;2.40;99.90
52321;DHT22;38261;54.090;13.382;2023-01-31T02:14:28;2.40;99.90
52321;DHT22;38261;54.090;13.382;2023-01-31T02:15:50;2.40;99.90
52321;DHT22;38261;54.090;13.382;2023-01-31T02:17:14;2.40;99.90
52321;DHT22;38261;54.090;13.382;2023-01-31T02:18:36;2.40;99.90
52321;DHT22;38261;54.090;13.382;2023-01-31T02:33:42;2.50;99.90
52321;DHT22;38261;54.090;13.382;2023-01-31T02:41:57;2.60;99.90
52321;DHT22;38261;54.090;13.382;2023-01-31T02:45:15;2.60;99.90
52321;DHT22;38261;54.090;13.382;2023-01-31T02:46:57;2.70;99.90
52321;DHT22;38261;54.090;13.382;2023-01-31T02:51:38;2.60;99.90
52321;DHT22;38261;54.090;13.382;2023-01-31T02:53:10;2.70;99.90
52321;DHT22;38261;54.090;13.382;2023-01-31T02:54:35;2.70;99.90
52321;DHT22;38261;54.090;13.382;2023-01-31T02:57:45;2.60;99.90
52321;DHT22;38261;54.090;13.382;2023-01-31T02:59:28;2.70;99.90
52321;DHT22;38261;54.090;13.382;2023-01-31T03:00:56;2.70;99.90
52321;DHT22;38261;54.090;13.382;2023-01-31T03:02:20;2.70;99.90
52321;DHT22;38261;54.090;13.382;2023-01-31T03:03:43;2.70;99.90
52321;DHT22;38261;54.090;13.382;2023-01-31T03:05:06;2.70;99.90
52321;DHT22;38261;54.090;13.382;2023-01-31T03:07:59;2.70;99.90
52321;DHT22;38261;54.090;13.382;2023-01-31T03:09:57;2.70;99.90
52321;DHT22;38261;54.090;13.382;2023-01-31T03:11:24;2.70;99.90
52321;DHT22;38261;54.090;13.382;2023-01-31T03:16:16;2.70;99.90
52321;DHT22;38261;54.090;13.382;2023-01-31T03:18:11;2.70;99.90
52321;DHT22;38261;54.090;13.382;2023-01-31T03:20:18;2.60;99.90
52321;DHT22;38261;54.090;13.382;2023-01-31T03:22:06;2.60;99.90
52321;DHT22;38261;54.090;13.382;2023-01-31T03:23:32;2.60;99.90
52321;DHT22;38261;54.090;13.382;2023-01-31T03:24:57;2.60;99.90
52321;DHT22;38261;54.090;13.382;2023-01-31T03:26:20;2.60;99.90
52321;DHT22;38261;54.090;13.382;2023-01-31T03:27:48;2.60;99.90
52321;DHT22;38261;54.090;13.382;2023-01-31T03:29:14;2.60;99.90
52321;DHT22;38261;54.090;13.382;2023-01-31T03:30:51;2.60;99.90
52321;DHT22;38261;54.090;13.382;2023-01-31T03:33:44;2.60;99.90
52321;DHT22;38261;54.090;13.382;2023-01-31T03:35:07;2.60;99.90
52321;DHT22;38261;54.090;13.382;2023-01-31T03:36:32;2.60;99.90
52321;DHT22;38261;54.090;13.382;2023-01-31T03:38:16;2.60;99.90
52321;DHT22;38261;54.090;13.382;2023-01-31T03:39:55;2.60;99.90
52321;DHT22;38261;54.090;13.382;2023-01-31T03:41:29;2.60;99.90
52321;DHT22;38261;54.090;13.382;2023-01-31T03:43:10;2.60;99.90
52321;DHT22;38261;54.090;13.382;2023-01-31T03:46:44;2.50;99.90
52321;DHT22;38261;54.090;13.382;2023-01-31T03:48:08;2.50;99.90
52321;DHT22;38261;54.090;13.382;2023-01-31T03:49:37;2.50;99.90
52321;DHT22;38261;54.090;13.382;2023-01-31T03:51:03;2.50;99.90
52321;DHT22;38261;54.090;13.382;2023-01-31T03:52:37;2.50;99.90
52321;DHT22;38261;54.090;13.382;2023-01-31T03:54:04;2.50;99.90
52321;DHT22;38261;54.090;13.382;2023-01-31T03:55:36;2.50;99.90
52321;DHT22;38261;54.090;13.382;2023-01-31T03:57:23;2.50;99.90
52321;DHT22;38261;54.090;13.382;2023-01-31T03:58:53;2.50;99.90
52321;DHT22;38261;54.090;13.382;2023-01-31T04:00:19;2.50;99.90
52321;DHT22;38261;54.090;13.382;2023-01-31T04:01:44;2.50;99.90
52321;DHT22;38261;54.090;13.382;2023-01-31T04:03:23;2.50;99.90
52321;DHT22;38261;54.090;13.382;2023-01-31T04:04:52;2.50;99.90
52321;DHT22;38261;54.090;13.382;2023-01-31T04:06:16;2.40;99.90
52321;DHT22;38261;54.090;13.382;2023-01-31T04:07:39;2.40;99.90
52321;DHT22;38261;54.090;13.382;2023-01-31T04:09:01;2.40;99.90
52321;DHT22;38261;54.090;13.382;2023-01-31T04:10:24;2.40;99.90
52321;DHT22;38261;54.090;13.382;2023-01-31T04:11:48;2.40;99.90
52321;DHT22;38261;54.090;13.382;2023-01-31T04:13:11;2.40;99.90
52321;DHT22;38261;54.090;13.382;2023-01-31T04:14:33;2.40;99.90
52321;DHT22;38261;54.090;13.382;2023-01-31T04:15:55;2.40;99.90
52321;DHT22;38261;54.090;13.382;2023-01-31T04:17:17;2.40;99.90
52321;DHT22;38261;54.090;13.382;2023-01-31T04:18:39;2.40;99.90
52321;DHT22;38261;54.090;13.382;2023-01-31T04:20:02;2.40;99.90
52321;DHT22;38261;54.090;13.382;2023-01-31T04:21:25;2.40;99.90
52321;DHT22;38261;54.090;13.382;2023-01-31T04:22:47;2.40;99.90
52321;DHT22;38261;54.090;13.382;2023-01-31T04:24:09;2.40;99.90
52321;DHT22;38261;54.090;13.382;2023-01-31T04:25:31;2.40;99.90
52321;DHT22;38261;54.090;13.382;2023-01-31T04:26:54;2.40;99.90
52321;DHT22;38261;54.090;13.382;2023-01-31T04:28:16;2.50;99.90
52321;DHT22;38261;54.090;13.382;2023-01-31T04:29:38;2.50;99.90
52321;DHT22;38261;54.090;13.382;2023-01-31T04:31:00;2.50;99.90
52321;DHT22;38261;54.090;13.382;2023-01-31T04:32:22;2.50;99.90
52321;DHT22;38261;54.090;13.382;2023-01-31T04:33:45;2.50;99.90
52321;DHT22;38261;54.090;13.382;2023-01-31T04:35:07;2.50;99.90
52321;DHT22;38261;54.090;13.382;2023-01-31T04:36:30;2.50;99.90
52321;DHT22;38261;54.090;13.382;2023-01-31T04:37:52;2.50;99.90
52321;DHT22;38261;54.090;13.382;2023-01-31T04:39:15;2.50;99.90
52321;DHT22;38261;54.090;13.382;2023-01-31T04:40:37;2.50;99.90
52321;DHT22;38261;54.090;13.382;2023-01-31T04:41:59;2.50;99.90
52321;DHT22;38261;54.090;13.382;2023-01-31T04:43:21;2.50;99.90
52321;DHT22;38261;54.090;13.382;2023-01-31T04:44:43;2.50;99.90
52321;DHT22;38261;54.090;13.382;2023-01-31T04:46:05;2.50;99.90
52321;DHT22;38261;54.090;13.382;2023-01-31T04:47:27;2.50;99.90
52321;DHT22;38261;54.090;13.382;2023-01-31T04:48:49;2.60;99.90
52321;DHT22;38261;54.090;13.382;2023-01-31T04:50:11;2.60;99.90
52321;DHT22;38261;54.090;13.382;2023-01-31T04:51:34;2.60;99.90
52321;DHT22;38261;54.090;13.382;2023-01-31T04:52:56;2.60;99.90
52321;DHT22;38261;54.090;13.382;2023-01-31T04:54:18;2.50;99.90
52321;DHT22;38261;54.090;13.382;2023-01-31T04:55:40;2.60;99.90
52321;DHT22;38261;54.090;13.382;2023-01-31T04:57:03;2.60;99.90
52321;DHT22;38261;54.090;13.382;2023-01-31T04:58:25;2.50;99.90
52321;DHT22;38261;54.090;13.382;2023-01-31T04:59:47;2.50;99.90
52321;DHT22;38261;54.090;13.382;2023-01-31T05:01:11;2.50;99.90
52321;DHT22;38261;54.090;13.382;2023-01-31T05:02:33;2.50;99.90
52321;DHT22;38261;54.090;13.382;2023-01-31T05:03:55;2.50;99.90
52321;DHT22;38261;54.090;13.382;2023-01-31T05:05:17;2.50;99.90
52321;DHT22;38261;54.090;13.382;2023-01-31T05:06:39;2.60;99.90
52321;DHT22;38261;54.090;13.382;2023-01-31T05:08:01;2.60;99.90
52321;DHT22;38261;54.090;13.382;2023-01-31T05:09:24;2.60;99.90
52321;DHT22;38261;54.090;13.382;2023-01-31T05:10:46;2.60;99.90
52321;DHT22;38261;54.090;13.382;2023-01-31T05:12:09;2.60;99.90
52321;DHT22;38261;54.090;13.382;2023-01-31T05:13:32;2.60;99.90
52321;DHT22;38261;54.090;13.382;2023-01-31T05:14:58;2.60;99.90
52321;DHT22;38261;54.090;13.382;2023-01-31T05:16:21;2.60;99.90
52321;DHT22;38261;54.090;13.382;2023-01-31T05:17:43;2.70;99.90
52321;DHT22;38261;54.090;13.382;2023-01-31T05:19:06;2.70;99.90
52321;DHT22;38261;54.090;13.382;2023-01-31T05:20:35;2.70;99.90
52321;DHT22;38261;54.090;13.382;2023-01-31T05:21:59;2.70;99.90
52321;DHT22;38261;54.090;13.382;2023-01-31T05:23:21;2.70;99.90
52321;DHT22;38261;54.090;13.382;2023-01-31T05:24:43;2.70;99.90
52321;DHT22;38261;54.090;13.382;2023-01-31T05:26:05;2.70;99.90
52321;DHT22;38261;54.090;13.382;2023-01-31T05:27:27;2.60;99.90
52321;DHT22;38261;54.090;13.382;2023-01-31T05:28:50;2.60;99.90
52321;DHT22;38261;54.090;13.382;2023-01-31T05:30:12;2.60;99.90
52321;DHT22;38261;54.090;13.382;2023-01-31T05:31:34;2.60;99.90
52321;DHT22;38261;54.090;13.382;2023-01-31T05:32:57;2.60;99.90
52321;DHT22;38261;54.090;13.382;2023-01-31T05:34:19;2.50;99.90
52321;DHT22;38261;54.090;13.382;2023-01-31T05:35:41;2.50;99.90
52321;DHT22;38261;54.090;13.382;2023-01-31T05:37:04;2.50;99.90
52321;DHT22;38261;54.090;13.382;2023-01-31T05:38:26;2.40;99.90
52321;DHT22;38261;54.090;13.382;2023-01-31T05:39:48;2.40;99.90
52321;DHT22;38261;54.090;13.382;2023-01-31T05:41:10;2.40;99.90
52321;DHT22;38261;54.090;13.382;2023-01-31T05:42:32;2.40;99.90
52321;DHT22;38261;54.090;13.382;2023-01-31T05:43:54;2.40;99.90
52321;DHT22;38261;54.090;13.382;2023-01-31T05:45:16;2.40;99.90
52321;DHT22;38261;54.090;13.382;2023-01-31T05:46:39;2.40;99.90
52321;DHT22;38261;54.090;13.382;2023-01-31T05:48:01;2.40;99.90
52321;DHT22;38261;54.090;13.382;2023-01-31T05:49:24;2.40;99.90
52321;DHT22;38261;54.090;13.382;2023-01-31T05:50:48;2.50;99.90
52321;DHT22;38261;54.090;13.382;2023-01-31T05:52:11;2.40;99.90
52321;DHT22;38261;54.090;13.382;2023-01-31T05:53:33;2.50;99.90
52321;DHT22;38261;54.090;13.382;2023-01-31T05:54:55;2.50;99.90
52321;DHT22;38261;54.090;13.382;2023-01-31T05:56:17;2.40;99.90
52321;DHT22;38261;54.090;13.382;2023-01-31T05:57:39;2.40;99.90
52321;DHT22;38261;54.090;13.382;2023-01-31T05:59:01;2.40;99.90
52321;DHT22;38261;54.090;13.382;2023-01-31T06:00:24;2.40;99.90
52321;DHT22;38261;54.090;13.382;2023-01-31T06:01:46;2.40;99.90
52321;DHT22;38261;54.090;13.382;2023-01-31T06:03:09;2.40;99.90
52321;DHT22;38261;54.090;13.382;2023-01-31T06:04:31;2.40;99.90
52321;DHT22;38261;54.090;13.382;2023-01-31T06:05:54;2.40;99.90
52321;DHT22;38261;54.090;13.382;2023-01-31T06:07:16;2.40;99.90
52321;DHT22;38261;54.090;13.382;2023-01-31T06:08:39;2.40;99.90
52321;DHT22;38261;54.090;13.382;2023-01-31T06:10:03;2.40;99.90
52321;DHT22;38261;54.090;13.382;2023-01-31T06:11:26;2.40;99.90
52321;DHT22;38261;54.090;13.382;2023-01-31T06:12:48;2.40;99.90
52321;DHT22;38261;54.090;13.382;2023-01-31T06:14:10;2.30;99.90
52321;DHT22;38261;54.090;13.382;2023-01-31T06:15:32;2.30;99.90
52321;DHT22;38261;54.090;13.382;2023-01-31T06:16:55;2.40;99.90
52321;DHT22;38261;54.090;13.382;2023-01-31T06:18:17;2.40;99.90
52321;DHT22;38261;54.090;13.382;2023-01-31T06:19:39;2.40;99.90
52321;DHT22;38261;54.090;13.382;2023-01-31T06:21:01;2.40;99.90
52321;DHT22;38261;54.090;13.382;2023-01-31T06:22:23;2.40;99.90
52321;DHT22;38261;54.090;13.382;2023-01-31T06:23:45;2.40;99.90
52321;DHT22;38261;54.090;13.382;2023-01-31T06:25:09;2.40;99.90
52321;DHT22;38261;54.090;13.382;2023-01-31T06:26:31;2.40;99.90
52321;DHT22;38261;54.090;13.382;2023-01-31T06:27:54;2.50;99.90
52321;DHT22;38261;54.090;13.382;2023-01-31T06:29:17;2.40;99.90
52321;DHT22;38261;54.090;13.382;2023-01-31T06:30:39;2.50;99.90
52321;DHT22;38261;54.090;13.382;2023-01-31T06:32:01;2.50;99.90
52321;DHT22;38261;54.090;13.382;2023-01-31T06:33:24;2.50;99.90
52321;DHT22;38261;54.090;13.382;2023-01-31T06:35:06;2.50;99.90
52321;DHT22;38261;54.090;13.382;2023-01-31T06:36:31;2.50;99.90
52321;DHT22;38261;54.090;13.382;2023-01-31T06:37:54;2.60;99.90
52321;DHT22;38261;54.090;13.382;2023-01-31T06:39:16;2.60;99.90
52321;DHT22;38261;54.090;13.382;2023-01-31T06:40:39;2.60;99.90
52321;DHT22;38261;54.090;13.382;2023-01-31T06:42:01;2.60;99.90
52321;DHT22;38261;54.090;13.382;2023-01-31T06:43:23;2.60;99.90
52321;DHT22;38261;54.090;13.382;2023-01-31T06:44:45;2.60;99.90
52321;DHT22;38261;54.090;13.382;2023-01-31T06:46:07;2.60;99.90
52321;DHT22;38261;54.090;13.382;2023-01-31T06:47:29;2.60;99.90
52321;DHT22;38261;54.090;13.382;2023-01-31T06:48:51;2.60;99.90
52321;DHT22;38261;54.090;13.382;2023-01-31T06:50:13;2.60;99.90
52321;DHT22;38261;54.090;13.382;2023-01-31T06:51:35;2.50;99.90
52321;DHT22;38261;54.090;13.382;2023-01-31T06:52:57;2.50;99.90
52321;DHT22;38261;54.090;13.382;2023-01-31T06:54:20;2.50;99.90
52321;DHT22;38261;54.090;13.382;2023-01-31T06:55:42;2.40;99.90
52321;DHT22;38261;54.090;13.382;2023-01-31T06:57:04;2.40;99.90
52321;DHT22;38261;54.090;13.382;2023-01-31T06:58:26;2.40;99.90
52321;DHT22;38261;54.090;13.382;2023-01-31T06:59:49;2.30;99.90
52321;DHT22;38261;54.090;13.382;2023-01-31T07:01:12;2.30;99.90
52321;DHT22;38261;54.090;13.382;2023-01-31T07:02:35;2.30;99.90
52321;DHT22;38261;54.090;13.382;2023-01-31T07:03:57;2.30;99.90
52321;DHT22;38261;54.090;13.382;2023-01-31T07:05:19;2.30;99.90
52321;DHT22;38261;54.090;13.382;2023-01-31T07:06:42;2.30;99.90
52321;DHT22;38261;54.090;13.382;2023-01-31T07:08:04;2.30;99.90
52321;DHT22;38261;54.090;13.382;2023-01-31T07:09:26;2.30;99.90
52321;DHT22;38261;54.090;13.382;2023-01-31T07:10:48;2.30;99.90
52321;DHT22;38261;54.090;13.382;2023-01-31T07:12:10;2.40;99.90
52321;DHT22;38261;54.090;13.382;2023-01-31T07:13:32;2.50;99.90
52321;DHT22;38261;54.090;13.382;2023-01-31T07:14:54;2.50;99.90
52321;DHT22;38261;54.090;13.382;2023-01-31T07:16:17;2.50;99.90
52321;DHT22;38261;54.090;13.382;2023-01-31T07:17:40;2.60;99.90
52321;DHT22;38261;54.090;13.382;2023-01-31T07:19:02;2.70;99.90
52321;DHT22;38261;54.090;13.382;2023-01-31T07:20:25;2.70;99.90
52321;DHT22;38261;54.090;13.382;2023-01-31T07:21:47;2.80;99.90
52321;DHT22;38261;54.090;13.382;2023-01-31T07:23:10;2.80;99.90
52321;DHT22;38261;54.090;13.382;2023-01-31T07:24:32;2.90;99.90
52321;DHT22;38261;54.090;13.382;2023-01-31T07:25:54;3.00;99.90
52321;DHT22;38261;54.090;13.382;2023-01-31T07:27:16;3.10;99.90
52321;DHT22;38261;54.090;13.382;2023-01-31T07:28:38;3.10;99.90
52321;DHT22;38261;54.090;13.382;2023-01-31T07:30:00;3.20;99.90
52321;DHT22;38261;54.090;13.382;2023-01-31T07:31:22;3.20;99.90
52321;DHT22;38261;54.090;13.382;2023-01-31T07:32:44;3.30;99.90
52321;DHT22;38261;54.090;13.382;2023-01-31T07:34:07;3.30;99.90
52321;DHT22;38261;54.090;13.382;2023-01-31T07:35:29;3.40;99.90
52321;DHT22;38261;54.090;13.382;2023-01-31T07:36:51;3.40;99.90
52321;DHT22;38261;54.090;13.382;2023-01-31T07:38:13;3.40;99.90
52321;DHT22;38261;54.090;13.382;2023-01-31T07:39:35;3.50;99.90
52321;DHT22;38261;54.090;13.382;2023-01-31T07:41:02;3.50;99.90
52321;DHT22;38261;54.090;13.382;2023-01-31T07:42:25;3.60;99.90
52321;DHT22;38261;54.090;13.382;2023-01-31T07:43:49;3.60;99.90
52321;DHT22;38261;54.090;13.382;2023-01-31T07:45:13;3.60;99.90
52321;DHT22;38261;54.090;13.382;2023-01-31T07:46:44;3.60;99.90
52321;DHT22;38261;54.090;13.382;2023-01-31T07:48:06;3.70;99.90
52321;DHT22;38261;54.090;13.382;2023-01-31T07:49:28;3.70;99.90
52321;DHT22;38261;54.090;13.382;2023-01-31T07:50:58;3.60;99.90
52321;DHT22;38261;54.090;13.382;2023-01-31T07:52:21;3.70;99.90
52321;DHT22;38261;54.090;13.382;2023-01-31T07:53:43;3.70;99.90
52321;DHT22;38261;54.090;13.382;2023-01-31T07:55:05;3.70;99.90
52321;DHT22;38261;54.090;13.382;2023-01-31T07:56:28;3.70;99.90
52321;DHT22;38261;54.090;13.382;2023-01-31T07:57:50;3.70;99.90
52321;DHT22;38261;54.090;13.382;2023-01-31T07:59:12;3.70;99.90
52321;DHT22;38261;54.090;13.382;2023-01-31T08:00:34;3.80;99.90
52321;DHT22;38261;54.090;13.382;2023-01-31T08:02:16;3.80;99.90
52321;DHT22;38261;54.090;13.382;2023-01-31T08:03:57;3.80;99.90
52321;DHT22;38261;54.090;13.382;2023-01-31T08:05:31;3.80;99.90
52321;DHT22;38261;54.090;13.382;2023-01-31T08:06:54;3.80;99.90
52321;DHT22;38261;54.090;13.382;2023-01-31T08:08:17;3.80;99.90
52321;DHT22;38261;54.090;13.382;2023-01-31T08:09:39;3.90;99.90
52321;DHT22;38261;54.090;13.382;2023-01-31T08:11:01;3.90;99.90
52321;DHT22;38261;54.090;13.382;2023-01-31T08:12:25;3.90;99.90
52321;DHT22;38261;54.090;13.382;2023-01-31T08:13:48;3.90;99.90
52321;DHT22;38261;54.090;13.382;2023-01-31T08:15:10;3.90;99.90
52321;DHT22;38261;54.090;13.382;2023-01-31T08:16:32;3.90;99.90
52321;DHT22;38261;54.090;13.382;2023-01-31T08:17:55;3.90;99.90
52321;DHT22;38261;54.090;13.382;2023-01-31T08:19:17;4.00;99.90
52321;DHT22;38261;54.090;13.382;2023-01-31T08:20:39;4.00;99.90
52321;DHT22;38261;54.090;13.382;2023-01-31T08:22:03;4.00;99.90
52321;DHT22;38261;54.090;13.382;2023-01-31T08:23:28;4.00;99.90
52321;DHT22;38261;54.090;13.382;2023-01-31T08:24:51;4.00;99.90
52321;DHT22;38261;54.090;13.382;2023-01-31T08:26:17;4.10;99.90
52321;DHT22;38261;54.090;13.382;2023-01-31T08:27:39;4.10;99.90
52321;DHT22;38261;54.090;13.382;2023-01-31T08:29:02;4.20;99.90
52321;DHT22;38261;54.090;13.382;2023-01-31T08:30:24;4.20;99.90
52321;DHT22;38261;54.090;13.382;2023-01-31T08:31:46;4.30;99.90
52321;DHT22;38261;54.090;13.382;2023-01-31T08:33:11;4.30;99.90
52321;DHT22;38261;54.090;13.382;2023-01-31T08:34:33;4.40;99.90
52321;DHT22;38261;54.090;13.382;2023-01-31T08:35:56;4.40;99.90
52321;DHT22;38261;54.090;13.382;2023-01-31T08:37:18;4.40;99.90
52321;DHT22;38261;54.090;13.382;2023-01-31T08:38:40;4.40;99.90
52321;DHT22;38261;54.090;13.382;2023-01-31T08:40:03;4.50;99.90
52321;DHT22;38261;54.090;13.382;2023-01-31T08:41:27;4.50;99.90
52321;DHT22;38261;54.090;13.382;2023-01-31T08:42:56;4.50;99.90
52321;DHT22;38261;54.090;13.382;2023-01-31T08:44:18;4.50;99.90
52321;DHT22;38261;54.090;13.382;2023-01-31T08:45:41;4.60;99.90
52321;DHT22;38261;54.090;13.382;2023-01-31T08:47:03;4.60;99.90
52321;DHT22;38261;54.090;13.382;2023-01-31T08:48:31;4.60;99.90
52321;DHT22;38261;54.090;13.382;2023-01-31T08:49:53;4.60;99.90
52321;DHT22;38261;54.090;13.382;2023-01-31T08:51:16;4.60;99.90
52321;DHT22;38261;54.090;13.382;2023-01-31T08:52:38;4.70;99.90
52321;DHT22;38261;54.090;13.382;2023-01-31T08:54:00;4.80;99.90
52321;DHT22;38261;54.090;13.382;2023-01-31T08:55:23;4.80;99.90
52321;DHT22;38261;54.090;13.382;2023-01-31T08:56:45;4.80;99.90
52321;DHT22;38261;54.090;13.382;2023-01-31T08:58:07;4.90;99.90
52321;DHT22;38261;54.090;13.382;2023-01-31T08:59:29;4.90;99.90
52321;DHT22;38261;54.090;13.382;2023-01-31T09:00:52;5.00;99.90
52321;DHT22;38261;54.090;13.382;2023-01-31T09:02:14;5.10;99.90
52321;DHT22;38261;54.090;13.382;2023-01-31T09:03:37;5.10;99.90
52321;DHT22;38261;54.090;13.382;2023-01-31T09:04:59;5.10;99.90
52321;DHT22;38261;54.090;13.382;2023-01-31T09:06:22;5.20;99.90
52321;DHT22;38261;54.090;13.382;2023-01-31T09:07:45;5.30;99.90
52321;DHT22;38261;54.090;13.382;2023-01-31T09:09:07;5.30;99.90
52321;DHT22;38261;54.090;13.382;2023-01-31T09:10:30;5.30;99.90
52321;DHT22;38261;54.090;13.382;2023-01-31T09:11:52;5.40;99.90
52321;DHT22;38261;54.090;13.382;2023-01-31T09:13:14;5.40;99.90
52321;DHT22;38261;54.090;13.382;2023-01-31T09:14:36;5.50;99.90
52321;DHT22;38261;54.090;13.382;2023-01-31T09:16:06;5.50;99.90
52321;DHT22;38261;54.090;13.382;2023-01-31T09:17:31;5.50;99.90
52321;DHT22;38261;54.090;13.382;2023-01-31T09:18:53;5.50;99.90
52321;DHT22;38261;54.090;13.382;2023-01-31T09:20:17;5.50;99.90
52321;DHT22;38261;54.090;13.382;2023-01-31T09:21:39;5.60;99.90
52321;DHT22;38261;54.090;13.382;2023-01-31T09:23:01;5.60;99.90
52321;DHT22;38261;54.090;13.382;2023-01-31T09:24:24;5.60;99.90
52321;DHT22;38261;54.090;13.382;2023-01-31T09:25:53;5.50;99.90
52321;DHT22;38261;54.090;13.382;2023-01-31T09:27:15;5.40;99.90
52321;DHT22;38261;54.090;13.382;2023-01-31T09:28:38;5.40;99.90